Pagrindinis puslapis
METAR-TAF:

METAR-TAF

Oro uostai :

Ørsta-Volda, Norvegija

platuma: 62-11N, ilguma: 006-04E, Aukštis: 7 m

Dabartinis oras

Ataskaita buvo paskelbta 19 valandos ir 24 minutes, ne 18:20 UTC
Vėjas 2 kt nuo kintamojo kryptimis
Temperatūra 21°C
Drėgmė 40%
Slėgis 1030 hPa
Matomumas 10 km arba daugiau
nėra debesų žemiau 1500 m ir nėra kamuolinių lietaus debesų

METAR: ENOV 311820Z VRB02KT CAVOK 21/07 Q1030 RMK WIND 2175FT 36004KT

Laikas: 15:44 (13:44 UTC)


TAF: trūkstamas

Orai ataskaitas ir orų prognozės (METAR, TAF).

turimą stotys yra geltonos ir raudonos taškus žemėlapyje.

Perkelti pele per norėdami pamatyti stoties vardą.

Tada spustelėkite, norėdami matyti oro stebėjimo ir prognozės.

Norėdami pakeisti žemėlapį: spustelėkite ant žalios mygtukų su juodo kryžiaus žemyn,; žalią mygtuką su brūkšneliu, jei norite nutolinti; arba žalių rodyklių gretimoms žemėlapius.


METAR-TAF: